createdAt,value
2017-08-19T00:00:52.077Z,2.6
2017-08-19T00:01:54.596Z,2.6
2017-08-19T00:02:57.461Z,2.6
2017-08-19T00:03:59.990Z,2.7
2017-08-19T00:05:03.187Z,2.6
2017-08-19T00:06:05.709Z,2.6
2017-08-19T00:07:08.563Z,2.6
2017-08-19T00:08:12.082Z,2.6
2017-08-19T00:09:14.927Z,2.6
2017-08-19T00:10:17.776Z,2.6
2017-08-19T00:11:20.641Z,2.6
2017-08-19T00:12:23.176Z,2.6
2017-08-19T00:13:25.996Z,2.6
2017-08-19T00:14:28.523Z,2.6
2017-08-19T00:15:31.371Z,2.6
2017-08-19T00:16:34.247Z,2.7
2017-08-19T00:17:36.764Z,2.6
2017-08-19T00:18:39.269Z,2.6
2017-08-19T00:19:41.775Z,2.6
2017-08-19T00:20:44.311Z,2.6
2017-08-19T00:21:47.173Z,2.6
2017-08-19T00:22:50.024Z,2.6
2017-08-19T00:23:52.874Z,2.6
2017-08-19T00:24:55.719Z,2.6
2017-08-19T00:25:58.583Z,2.6
2017-08-19T00:27:01.782Z,2.6
2017-08-19T00:28:04.625Z,2.5
2017-08-19T00:29:07.141Z,2.6
2017-08-19T00:30:09.985Z,2.6
2017-08-19T00:31:12.503Z,2.6
2017-08-19T00:32:15.345Z,2.7
2017-08-19T00:33:18.525Z,2.6
2017-08-19T00:34:21.390Z,2.6
2017-08-19T00:35:24.258Z,2.7
2017-08-19T00:36:27.425Z,2.7
2017-08-19T00:37:29.945Z,2.6
2017-08-19T00:38:32.791Z,2.7
2017-08-19T00:39:35.290Z,2.6
2017-08-19T00:40:37.820Z,2.7
2017-08-19T00:41:40.340Z,2.6
2017-08-19T00:42:42.851Z,2.6
2017-08-19T00:43:46.063Z,2.6
2017-08-19T00:44:48.912Z,2.6
2017-08-19T00:45:51.416Z,2.7
2017-08-19T00:46:53.959Z,2.7
2017-08-19T00:47:57.141Z,2.6
2017-08-19T00:48:59.974Z,2.6
2017-08-19T00:50:02.480Z,2.7
2017-08-19T00:51:04.982Z,2.6
2017-08-19T00:52:07.507Z,2.6
2017-08-19T00:53:10.028Z,2.7
2017-08-19T00:54:12.517Z,2.6
2017-08-19T00:55:16.081Z,2.7
2017-08-19T00:56:18.592Z,2.6
2017-08-19T00:57:21.097Z,2.6
2017-08-19T00:58:23.619Z,2.6
2017-08-19T00:59:26.122Z,2.7
2017-08-19T01:00:28.630Z,2.6
2017-08-19T01:01:31.506Z,2.7
2017-08-19T01:02:34.006Z,2.7
2017-08-19T01:03:36.528Z,2.6
2017-08-19T01:04:39.038Z,2.6
2017-08-19T01:05:41.572Z,2.6
2017-08-19T01:06:44.085Z,2.6
2017-08-19T01:07:46.591Z,2.6
2017-08-19T01:08:49.092Z,2.6
2017-08-19T01:09:51.623Z,2.6
2017-08-19T01:10:54.477Z,2.5
2017-08-19T01:11:57.317Z,2.6
2017-08-19T01:12:59.824Z,2.6
2017-08-19T01:14:02.669Z,2.6
2017-08-19T01:15:05.183Z,2.6
2017-08-19T01:16:07.694Z,2.6
2017-08-19T01:17:10.537Z,2.6
2017-08-19T01:18:14.079Z,2.6
2017-08-19T01:19:16.600Z,2.6
2017-08-19T01:20:19.093Z,2.5
2017-08-19T01:21:21.610Z,2.6
2017-08-19T01:22:24.477Z,2.6
2017-08-19T01:23:26.995Z,2.6
2017-08-19T01:24:29.848Z,2.6
2017-08-19T01:25:33.049Z,2.6
2017-08-19T01:26:35.544Z,2.6
2017-08-19T01:27:38.062Z,2.6
2017-08-19T01:28:41.590Z,2.6
2017-08-19T01:29:44.105Z,2.6
2017-08-19T01:30:46.943Z,2.6
2017-08-19T01:31:49.457Z,2.6
2017-08-19T01:32:51.957Z,2.6
2017-08-19T01:33:55.490Z,2.6
2017-08-19T01:34:57.982Z,2.6
2017-08-19T01:36:00.842Z,2.6
2017-08-19T01:37:03.709Z,2.6
2017-08-19T01:38:06.220Z,2.5
2017-08-19T01:39:09.089Z,2.6
2017-08-19T01:40:11.593Z,2.6
2017-08-19T01:41:14.441Z,2.5
2017-08-19T01:42:17.618Z,2.6
2017-08-19T01:43:20.134Z,2.6
2017-08-19T01:44:22.624Z,2.6
2017-08-19T01:45:25.181Z,2.6
2017-08-19T01:46:28.042Z,2.6
2017-08-19T01:47:30.551Z,2.6
2017-08-19T01:48:33.055Z,2.6
2017-08-19T01:49:35.579Z,2.6
2017-08-19T01:50:38.765Z,2.5
2017-08-19T01:51:41.645Z,2.6
2017-08-19T01:52:44.174Z,2.6
2017-08-19T01:53:47.708Z,2.6
2017-08-19T01:54:50.213Z,2.6
2017-08-19T01:55:53.056Z,2.5
2017-08-19T01:56:55.582Z,2.5
2017-08-19T01:57:58.096Z,2.6
2017-08-19T01:59:00.584Z,2.5
2017-08-19T02:00:03.439Z,2.5
2017-08-19T02:01:06.282Z,2.5
2017-08-19T02:02:08.795Z,2.5
2017-08-19T02:03:11.297Z,2.6
2017-08-19T02:04:13.809Z,2.6
2017-08-19T02:05:16.994Z,2.6
2017-08-19T02:06:20.201Z,2.6
2017-08-19T02:07:22.711Z,2.6
2017-08-19T02:08:25.223Z,2.6
2017-08-19T02:09:27.731Z,2.5
2017-08-19T02:10:30.567Z,2.6
2017-08-19T02:11:33.419Z,2.6
2017-08-19T02:12:36.294Z,2.5
2017-08-19T02:13:39.522Z,2.5
2017-08-19T02:14:42.364Z,2.6
2017-08-19T02:15:44.874Z,2.6
2017-08-19T02:16:47.377Z,2.5
2017-08-19T02:17:50.928Z,2.5
2017-08-19T02:18:54.109Z,2.5
2017-08-19T02:19:56.964Z,2.5
2017-08-19T02:21:00.164Z,2.5
2017-08-19T02:22:03.007Z,2.5
2017-08-19T02:23:05.851Z,2.5
2017-08-19T02:24:08.706Z,2.5
2017-08-19T02:25:11.187Z,2.5
2017-08-19T02:26:13.706Z,2.5
2017-08-19T02:27:16.232Z,2.5
2017-08-19T02:28:19.078Z,2.4
2017-08-19T02:29:22.264Z,2.5
2017-08-19T02:30:24.779Z,2.5
2017-08-19T02:31:27.628Z,2.4
2017-08-19T02:32:30.153Z,2.5
2017-08-19T02:33:33.685Z,2.5
2017-08-19T02:34:36.178Z,2.5
2017-08-19T02:35:38.714Z,2.5
2017-08-19T02:36:41.217Z,2.4
2017-08-19T02:37:44.403Z,2.4
2017-08-19T02:38:47.598Z,2.5
2017-08-19T02:39:50.462Z,2.4
2017-08-19T02:40:53.319Z,2.4
2017-08-19T02:41:56.172Z,2.4
2017-08-19T02:42:58.696Z,2.4
2017-08-19T02:44:01.214Z,2.4
2017-08-19T02:45:04.414Z,2.4
2017-08-19T02:46:06.927Z,2.4
2017-08-19T02:47:09.776Z,2.4
2017-08-19T02:48:12.636Z,2.4
2017-08-19T02:49:15.498Z,2.4
2017-08-19T02:50:18.667Z,2.4
2017-08-19T02:51:21.197Z,2.4
2017-08-19T02:52:24.724Z,2.4
2017-08-19T02:53:28.254Z,2.4
2017-08-19T02:54:31.127Z,2.3
2017-08-19T02:55:33.631Z,2.4
2017-08-19T02:56:36.133Z,2.2
2017-08-19T02:57:38.647Z,2.4
2017-08-19T02:58:41.825Z,2.4
2017-08-19T02:59:45.019Z,2.3
2017-08-19T03:00:48.196Z,2.4
2017-08-19T03:01:51.045Z,2.4
2017-08-19T03:02:53.886Z,2.4
2017-08-19T03:03:56.407Z,2.4
2017-08-19T03:04:59.245Z,2.3
2017-08-19T03:06:01.757Z,2.4
2017-08-19T03:07:04.643Z,2.4
2017-08-19T03:08:07.171Z,2.3
2017-08-19T03:09:10.018Z,2.4
2017-08-19T03:10:13.206Z,2.3
2017-08-19T03:11:15.721Z,2.3
2017-08-19T03:12:18.570Z,2.3
2017-08-19T03:13:21.769Z,2.3
2017-08-19T03:14:24.294Z,2.3
2017-08-19T03:15:27.110Z,2.3
2017-08-19T03:16:29.620Z,2.3
2017-08-19T03:17:32.777Z,2.3
2017-08-19T03:18:35.294Z,2.3
2017-08-19T03:19:38.145Z,2.3
2017-08-19T03:20:40.651Z,2.3
2017-08-19T03:21:43.167Z,2.3
2017-08-19T03:22:45.666Z,2.3
2017-08-19T03:23:48.178Z,2.3
2017-08-19T03:24:50.669Z,2.1
2017-08-19T03:25:53.177Z,2.3
2017-08-19T03:26:55.716Z,2.3
2017-08-19T03:27:58.234Z,2.3
2017-08-19T03:29:00.749Z,2.3
2017-08-19T03:30:04.665Z,2.3
2017-08-19T03:31:07.527Z,2.3
2017-08-19T03:32:10.381Z,2.2
2017-08-19T03:33:12.886Z,2.3
2017-08-19T03:34:16.069Z,2.2
2017-08-19T03:35:18.573Z,2.3
2017-08-19T03:36:21.085Z,2.3
2017-08-19T03:37:23.919Z,2.3
2017-08-19T03:38:26.414Z,2.2
2017-08-19T03:39:28.938Z,2.2
2017-08-19T03:40:31.764Z,2.2
2017-08-19T03:41:34.264Z,2.3
2017-08-19T03:42:36.790Z,2.3
2017-08-19T03:43:39.308Z,2.2
2017-08-19T03:44:41.804Z,2.3
2017-08-19T03:45:44.306Z,2.3
2017-08-19T03:46:46.810Z,2.2
2017-08-19T03:47:49.310Z,2.3
2017-08-19T03:48:51.843Z,2.2
2017-08-19T03:49:55.033Z,2.2
2017-08-19T03:50:57.891Z,2.2
2017-08-19T03:52:00.400Z,2.2
2017-08-19T03:53:03.921Z,2.2
2017-08-19T03:54:07.103Z,2.2
2017-08-19T03:55:09.608Z,2.1
2017-08-19T03:56:12.125Z,2.2
2017-08-19T03:57:14.632Z,2.3
2017-08-19T03:58:17.486Z,2.3
2017-08-19T03:59:19.999Z,2.2
2017-08-19T04:00:22.514Z,2.2
2017-08-19T04:01:25.042Z,2.3
2017-08-19T04:02:28.232Z,2.2
2017-08-19T04:03:31.079Z,2.2
2017-08-19T04:04:34.284Z,2.2
2017-08-19T04:05:37.117Z,2.3
2017-08-19T04:06:39.624Z,2.2
2017-08-19T04:07:42.474Z,2.3
2017-08-19T04:08:44.985Z,2.2
2017-08-19T04:09:47.486Z,2.2
2017-08-19T04:10:50.341Z,2.2
2017-08-19T04:11:53.532Z,2.2
2017-08-19T04:12:56.388Z,2.3
2017-08-19T04:13:58.895Z,2.3
2017-08-19T04:15:02.067Z,2.2
2017-08-19T04:16:04.925Z,2.2
2017-08-19T04:17:07.422Z,2.2
2017-08-19T04:18:10.254Z,2.2
2017-08-19T04:19:13.106Z,2.3
2017-08-19T04:20:15.618Z,2.2
2017-08-19T04:21:18.454Z,2.2
2017-08-19T04:22:22.334Z,2.2
2017-08-19T04:23:25.175Z,2.3
2017-08-19T04:24:27.679Z,2.3
2017-08-19T04:25:30.189Z,2.2
2017-08-19T04:26:33.389Z,2.2
2017-08-19T04:27:36.229Z,2.2
2017-08-19T04:28:38.744Z,2.3
2017-08-19T04:29:41.590Z,2.2
2017-08-19T04:30:44.786Z,2.3
2017-08-19T04:31:47.280Z,2.3
2017-08-19T04:32:49.807Z,2.3
2017-08-19T04:33:52.293Z,2.3
2017-08-19T04:34:54.825Z,2.2
2017-08-19T04:35:57.338Z,2.3
2017-08-19T04:36:59.865Z,2.3
2017-08-19T04:38:02.722Z,2.3
2017-08-19T04:39:05.203Z,2.2
2017-08-19T04:40:07.705Z,2.2
2017-08-19T04:41:10.213Z,2.2
2017-08-19T04:42:12.735Z,2.3
2017-08-19T04:43:15.245Z,2.3
2017-08-19T04:44:17.782Z,2.3
2017-08-19T04:45:20.295Z,2.2
2017-08-19T04:46:23.146Z,2.3
2017-08-19T04:47:25.669Z,2.3
2017-08-19T04:48:28.163Z,2.3
2017-08-19T04:49:30.679Z,2.2
2017-08-19T04:50:33.189Z,2.2
2017-08-19T04:51:35.704Z,2.2
2017-08-19T04:52:38.213Z,2.2
2017-08-19T04:53:41.094Z,2.2
2017-08-19T04:54:43.604Z,2.2
2017-08-19T04:55:46.120Z,2.2
2017-08-19T04:56:48.958Z,2.1
2017-08-19T04:57:52.143Z,2.2
2017-08-19T04:58:54.654Z,2.2
2017-08-19T04:59:57.496Z,2.2
2017-08-19T05:00:59.996Z,2.2
2017-08-19T05:02:03.519Z,2.2
2017-08-19T05:03:06.704Z,2.2
2017-08-19T05:04:09.550Z,2.2
2017-08-19T05:05:12.057Z,2.2
2017-08-19T05:06:14.552Z,2.2
2017-08-19T05:07:17.071Z,2.2
2017-08-19T05:08:20.254Z,2.2
2017-08-19T05:09:22.767Z,2.2
2017-08-19T05:10:26.296Z,2.2
2017-08-19T05:11:29.495Z,2.2
2017-08-19T05:12:31.992Z,2.3
2017-08-19T05:13:34.513Z,2.2
2017-08-19T05:14:37.363Z,2.3
2017-08-19T05:15:39.871Z,2.2
2017-08-19T05:16:42.711Z,2.3
2017-08-19T05:17:45.226Z,2.2
2017-08-19T05:18:47.725Z,2.2
2017-08-19T05:19:50.593Z,2.2
2017-08-19T05:20:53.792Z,2.2
2017-08-19T05:21:56.632Z,2.2
2017-08-19T05:22:59.130Z,2.1
2017-08-19T05:24:02.039Z,2.3
2017-08-19T05:25:04.564Z,2.2
2017-08-19T05:26:07.072Z,2.1
2017-08-19T05:27:09.584Z,2.2
2017-08-19T05:28:12.448Z,2.2
2017-08-19T05:29:15.959Z,2.2
2017-08-19T05:30:18.812Z,2.2
2017-08-19T05:31:21.988Z,2.2
2017-08-19T05:32:24.502Z,2.1
2017-08-19T05:33:27.351Z,2.2
2017-08-19T05:34:29.858Z,2.2
2017-08-19T05:35:33.063Z,2.2
2017-08-19T05:36:35.939Z,2.2
2017-08-19T05:37:39.126Z,2.1
2017-08-19T05:38:41.635Z,2.1
2017-08-19T05:39:44.483Z,2.2
2017-08-19T05:40:47.382Z,2.2
2017-08-19T05:41:49.888Z,2.2
2017-08-19T05:42:53.077Z,2.2
2017-08-19T05:43:55.614Z,2.2
2017-08-19T05:44:58.132Z,2.2
2017-08-19T05:46:00.978Z,2.2
2017-08-19T05:47:03.492Z,2.2
2017-08-19T05:48:06.682Z,2.2
2017-08-19T05:49:09.875Z,2.2
2017-08-19T05:50:12.374Z,2.2
2017-08-19T05:51:15.220Z,2.1
2017-08-19T05:52:18.076Z,2.2
2017-08-19T05:53:20.577Z,2.2
2017-08-19T05:54:23.081Z,2.2
2017-08-19T05:55:25.620Z,2.1
2017-08-19T05:56:28.800Z,2.2
2017-08-19T05:57:31.326Z,2.2
2017-08-19T05:58:33.837Z,2.2
2017-08-19T05:59:36.695Z,2.2
2017-08-19T06:00:39.196Z,2.1
2017-08-19T06:01:41.708Z,2.2
2017-08-19T06:02:44.200Z,2.2
2017-08-19T06:03:47.058Z,2.2
2017-08-19T06:04:49.570Z,2.2
2017-08-19T06:05:52.751Z,2.3
2017-08-19T06:06:55.273Z,2.2
2017-08-19T06:07:58.138Z,2.2
2017-08-19T06:09:00.967Z,2.2
2017-08-19T06:10:04.488Z,2.2
2017-08-19T06:11:07.006Z,2.2
2017-08-19T06:12:09.525Z,2.2
2017-08-19T06:13:12.037Z,2.2
2017-08-19T06:14:14.550Z,2.2
2017-08-19T06:15:17.056Z,2.2
2017-08-19T06:16:20.606Z,2.2
2017-08-19T06:17:23.102Z,2.2
2017-08-19T06:18:26.321Z,2.2
2017-08-19T06:19:29.202Z,2.2
2017-08-19T06:20:31.713Z,2.2
2017-08-19T06:21:34.201Z,2.2
2017-08-19T06:22:36.702Z,2.2
2017-08-19T06:23:39.894Z,2.2
2017-08-19T06:24:43.410Z,2.2
2017-08-19T06:25:46.252Z,2.2
2017-08-19T06:26:49.132Z,2.2
2017-08-19T06:27:51.631Z,2.2
2017-08-19T06:28:54.152Z,2.2
2017-08-19T06:29:56.661Z,2.3
2017-08-19T06:30:59.161Z,2.3
2017-08-19T06:32:01.668Z,2.2
2017-08-19T06:33:04.203Z,2.3
2017-08-19T06:34:06.720Z,2.2
2017-08-19T06:35:09.224Z,2.2
2017-08-19T06:36:12.057Z,2.2
2017-08-19T06:37:14.924Z,2.3
2017-08-19T06:38:17.801Z,2.3
2017-08-19T06:39:20.658Z,2.2
2017-08-19T06:40:23.148Z,2.3
2017-08-19T06:41:25.661Z,2.3
2017-08-19T06:42:28.503Z,2.1
2017-08-19T06:43:31.344Z,2.3
2017-08-19T06:44:34.525Z,2.3
2017-08-19T06:45:37.719Z,2.1
2017-08-19T06:46:40.559Z,2.3
2017-08-19T06:47:43.422Z,2.3
2017-08-19T06:48:45.955Z,2.3
2017-08-19T06:49:48.454Z,2.3
2017-08-19T06:50:51.642Z,2.3
2017-08-19T06:51:54.174Z,2.3
2017-08-19T06:52:56.694Z,2.2
2017-08-19T06:53:59.201Z,2.3
2017-08-19T06:55:02.381Z,2.3
2017-08-19T06:56:04.895Z,2.3
2017-08-19T06:57:07.410Z,2.3
2017-08-19T06:58:09.946Z,2.3
2017-08-19T06:59:12.449Z,2.3
2017-08-19T07:00:14.962Z,2.3
2017-08-19T07:01:17.801Z,2.4
2017-08-19T07:02:20.669Z,2.3
2017-08-19T07:03:23.180Z,2.3
2017-08-19T07:04:26.022Z,2.3
2017-08-19T07:05:28.568Z,2.3
2017-08-19T07:06:31.435Z,2.4
2017-08-19T07:07:34.298Z,2.3
2017-08-19T07:08:37.163Z,2.3
2017-08-19T07:09:40.012Z,2.4
2017-08-19T07:10:42.847Z,2.3
2017-08-19T07:11:45.716Z,2.3
2017-08-19T07:12:48.218Z,2.3
2017-08-19T07:13:50.714Z,2.4
2017-08-19T07:14:53.557Z,2.2
2017-08-19T07:15:56.391Z,2.3
2017-08-19T07:16:58.900Z,2.3
2017-08-19T07:18:01.779Z,2.4
2017-08-19T07:19:04.958Z,2.3
2017-08-19T07:20:07.465Z,2.4
2017-08-19T07:21:11.007Z,2.3
2017-08-19T07:22:13.513Z,2.4
2017-08-19T07:23:16.368Z,2.4
2017-08-19T07:24:19.584Z,2.4
2017-08-19T07:25:22.091Z,2.4
2017-08-19T07:26:25.292Z,2.4
2017-08-19T07:27:28.148Z,2.4
2017-08-19T07:28:30.645Z,2.4
2017-08-19T07:29:33.494Z,2.4
2017-08-19T07:30:36.003Z,2.3
2017-08-19T07:31:38.504Z,2.4
2017-08-19T07:32:41.375Z,2.5
2017-08-19T07:33:44.238Z,2.4
2017-08-19T07:34:47.077Z,2.5
2017-08-19T07:35:49.908Z,2.4
2017-08-19T07:36:52.760Z,2.5
2017-08-19T07:37:55.293Z,2.5
2017-08-19T07:38:58.128Z,2.4
2017-08-19T07:40:00.961Z,2.5
2017-08-19T07:41:04.149Z,2.4
2017-08-19T07:42:06.657Z,2.5
2017-08-19T07:43:09.520Z,2.5
2017-08-19T07:44:12.057Z,2.5
2017-08-19T07:45:14.543Z,2.5
2017-08-19T07:46:17.395Z,2.5
2017-08-19T07:47:19.933Z,2.6
2017-08-19T07:48:22.437Z,2.6
2017-08-19T07:49:24.940Z,2.6
2017-08-19T07:50:27.443Z,2.6
2017-08-19T07:51:29.954Z,2.6
2017-08-19T07:52:32.476Z,2.6
2017-08-19T07:53:35.336Z,2.6
2017-08-19T07:54:37.857Z,2.7
2017-08-19T07:55:40.361Z,2.6
2017-08-19T07:56:43.551Z,2.6
2017-08-19T07:57:47.674Z,2.6
2017-08-19T07:58:50.576Z,2.6
2017-08-19T07:59:53.094Z,2.7
2017-08-19T08:00:55.617Z,2.7
2017-08-19T08:01:58.135Z,2.6
2017-08-19T08:03:00.659Z,2.6
2017-08-19T08:04:03.520Z,2.7
2017-08-19T08:05:06.725Z,2.6
2017-08-19T08:06:09.577Z,2.7
2017-08-19T08:07:12.773Z,2.7
2017-08-19T08:08:15.290Z,2.6
2017-08-19T08:09:18.163Z,2.8
2017-08-19T08:10:20.652Z,2.7
2017-08-19T08:11:23.529Z,2.7
2017-08-19T08:12:26.046Z,2.7
2017-08-19T08:13:28.563Z,2.8
2017-08-19T08:14:31.426Z,2.7
2017-08-19T08:15:33.935Z,2.7
2017-08-19T08:16:36.445Z,2.7
2017-08-19T08:17:39.317Z,2.7
2017-08-19T08:18:42.494Z,2.7
2017-08-19T08:19:45.010Z,2.7
2017-08-19T08:20:47.856Z,2.7
2017-08-19T08:21:50.717Z,2.7
2017-08-19T08:22:53.937Z,2.8
2017-08-19T08:23:56.805Z,2.7
2017-08-19T08:24:59.297Z,2.7
2017-08-19T08:26:02.192Z,2.8
2017-08-19T08:27:05.392Z,2.8
2017-08-19T08:28:07.896Z,2.8
2017-08-19T08:29:11.083Z,2.8
2017-08-19T08:30:13.603Z,2.9
2017-08-19T08:31:16.102Z,2.9
2017-08-19T08:32:18.970Z,2.8
2017-08-19T08:33:21.837Z,2.8
2017-08-19T08:34:24.701Z,2.8
2017-08-19T08:35:27.565Z,2.9
2017-08-19T08:36:30.098Z,2.9
2017-08-19T08:37:33.285Z,2.9
2017-08-19T08:38:35.795Z,2.8
2017-08-19T08:39:38.338Z,2.9
2017-08-19T08:40:40.860Z,2.9
2017-08-19T08:41:43.397Z,2.8
2017-08-19T08:42:46.276Z,2.8
2017-08-19T08:43:49.123Z,2.8
2017-08-19T08:44:51.641Z,2.8
2017-08-19T08:45:54.512Z,2.9
2017-08-19T08:46:57.020Z,2.9
2017-08-19T08:47:59.541Z,2.8
2017-08-19T08:49:02.424Z,2.9
2017-08-19T08:50:04.941Z,2.9
2017-08-19T08:51:07.456Z,2.9
2017-08-19T08:52:10.687Z,2.7
2017-08-19T08:53:13.207Z,2.4
2017-08-19T08:54:16.060Z,2.4
2017-08-19T08:55:18.919Z,2.4
2017-08-19T08:56:21.775Z,2.3
2017-08-19T08:57:24.290Z,2.3
2017-08-19T08:58:26.804Z,2.3
2017-08-19T08:59:29.985Z,2.4
2017-08-19T09:00:32.539Z,2.4
2017-08-19T09:01:35.753Z,2.3
2017-08-19T09:02:38.254Z,2.3
2017-08-19T09:03:40.763Z,2.4
2017-08-19T09:04:43.660Z,2.4
2017-08-19T09:05:46.198Z,2.4
2017-08-19T09:06:48.715Z,2.5
2017-08-19T09:07:51.249Z,2.4
2017-08-19T09:08:54.103Z,2.4
2017-08-19T09:09:56.626Z,2.5
2017-08-19T09:10:59.825Z,2.3
2017-08-19T09:12:02.679Z,2.4
2017-08-19T09:13:05.874Z,2.4
2017-08-19T09:14:08.777Z,2.5
2017-08-19T09:15:11.649Z,2.4
2017-08-19T09:16:14.150Z,2.5
2017-08-19T09:17:17.022Z,2.4
2017-08-19T09:18:19.896Z,2.5
2017-08-19T09:19:22.425Z,2.5
2017-08-19T09:20:25.285Z,2.5
2017-08-19T09:21:28.146Z,2.5
2017-08-19T09:22:31.001Z,2.5
2017-08-19T09:23:33.531Z,2.5
2017-08-19T09:24:36.032Z,2.5
2017-08-19T09:25:38.894Z,2.4
2017-08-19T09:26:41.753Z,2.4
2017-08-19T09:27:44.614Z,2.4
2017-08-19T09:28:47.132Z,2.4
2017-08-19T09:29:49.652Z,2.4
2017-08-19T09:30:52.169Z,2.5
2017-08-19T09:31:55.027Z,2.4
2017-08-19T09:32:57.561Z,2.4
2017-08-19T09:34:00.425Z,2.5
2017-08-19T09:35:03.276Z,2.4
2017-08-19T09:36:05.791Z,2.4
2017-08-19T09:37:08.344Z,2.5
2017-08-19T09:38:10.857Z,2.4
2017-08-19T09:39:13.726Z,2.5
2017-08-19T09:40:16.217Z,2.5
2017-08-19T09:41:19.082Z,2.5
2017-08-19T09:42:21.601Z,2.5
2017-08-19T09:43:24.107Z,2.5
2017-08-19T09:44:26.634Z,2.5
2017-08-19T09:45:29.161Z,2.4
2017-08-19T09:46:31.684Z,2.5
2017-08-19T09:47:34.547Z,2.5
2017-08-19T09:48:37.073Z,2.6
2017-08-19T09:49:39.566Z,2.6
2017-08-19T09:50:42.106Z,2.6
2017-08-19T09:51:44.639Z,2.6
2017-08-19T09:52:47.146Z,2.6
2017-08-19T09:53:49.674Z,2.6
2017-08-19T09:54:52.202Z,2.6
2017-08-19T09:55:54.732Z,2.6
2017-08-19T09:56:57.942Z,2.6
2017-08-19T09:58:00.446Z,2.6
2017-08-19T09:59:03.682Z,2.6
2017-08-19T10:00:06.205Z,2.6
2017-08-19T10:01:09.059Z,2.6
2017-08-19T10:02:11.905Z,2.6
2017-08-19T10:03:14.424Z,2.6
2017-08-19T10:04:16.954Z,2.6
2017-08-19T10:05:19.476Z,2.6
2017-08-19T10:06:22.312Z,2.6
2017-08-19T10:07:25.184Z,2.7
2017-08-19T10:08:28.064Z,2.6
2017-08-19T10:09:31.625Z,2.7
2017-08-19T10:10:34.137Z,2.7
2017-08-19T10:11:36.644Z,2.7
2017-08-19T10:12:39.153Z,2.6
2017-08-19T10:13:42.362Z,2.7
2017-08-19T10:14:45.207Z,2.6
2017-08-19T10:15:48.420Z,2.6
2017-08-19T10:16:51.619Z,2.7
2017-08-19T10:17:54.118Z,2.7
2017-08-19T10:18:56.981Z,2.7
2017-08-19T10:19:59.839Z,2.7
2017-08-19T10:21:02.364Z,2.7
2017-08-19T10:22:05.214Z,2.7
2017-08-19T10:23:07.731Z,2.7
2017-08-19T10:24:10.242Z,2.8
2017-08-19T10:25:12.783Z,2.8
2017-08-19T10:26:15.307Z,2.8
2017-08-19T10:27:18.165Z,2.9
2017-08-19T10:28:21.042Z,2.9
2017-08-19T10:29:24.949Z,2.9
2017-08-19T10:30:27.806Z,2.9
2017-08-19T10:31:30.331Z,2.9
2017-08-19T10:32:32.853Z,3
2017-08-19T10:33:35.382Z,3
2017-08-19T10:34:37.913Z,3
2017-08-19T10:35:40.433Z,3.1
2017-08-19T10:36:43.294Z,3
2017-08-19T10:37:46.183Z,3.1
2017-08-19T10:38:49.031Z,3.1
2017-08-19T10:39:51.563Z,3.1
2017-08-19T10:40:54.073Z,3.1
2017-08-19T10:41:56.597Z,3
2017-08-19T10:42:59.120Z,3
2017-08-19T10:44:02.675Z,3
2017-08-19T10:45:05.530Z,2.9
2017-08-19T10:46:08.746Z,2.9
2017-08-19T10:47:11.254Z,2.9
2017-08-19T10:48:14.125Z,3
2017-08-19T10:49:17.329Z,2.9
2017-08-19T10:50:20.896Z,2.9
2017-08-19T10:51:23.404Z,2.9
2017-08-19T10:52:26.265Z,2.9
2017-08-19T10:53:28.793Z,2.9
2017-08-19T10:54:31.653Z,2.8
2017-08-19T10:55:34.171Z,2.8
2017-08-19T10:56:36.696Z,2.9
2017-08-19T10:57:39.208Z,2.8
2017-08-19T10:58:41.741Z,2.8
2017-08-19T10:59:44.594Z,2.8
2017-08-19T11:00:47.124Z,2.7
2017-08-19T11:01:49.644Z,2.8
2017-08-19T11:02:52.168Z,2.8
2017-08-19T11:03:55.022Z,2.8
2017-08-19T11:04:57.545Z,2.7
2017-08-19T11:06:00.073Z,2.8
2017-08-19T11:07:02.936Z,2.8
2017-08-19T11:08:05.446Z,2.8
2017-08-19T11:09:07.984Z,2.7
2017-08-19T11:10:10.516Z,2.9
2017-08-19T11:11:13.035Z,2.9
2017-08-19T11:12:15.548Z,2.9
2017-08-19T11:13:18.746Z,2.9
2017-08-19T11:14:21.281Z,2.9
2017-08-19T11:15:24.141Z,3
2017-08-19T11:16:26.659Z,3
2017-08-19T11:17:29.878Z,3
2017-08-19T11:18:32.740Z,3
2017-08-19T11:19:35.266Z,3.1
2017-08-19T11:20:37.787Z,3.1
2017-08-19T11:21:40.301Z,3.1
2017-08-19T11:22:42.825Z,3
2017-08-19T11:23:45.351Z,3
2017-08-19T11:24:47.858Z,3
2017-08-19T11:25:50.382Z,3
2017-08-19T11:26:52.902Z,3
2017-08-19T11:27:55.440Z,3
2017-08-19T11:28:58.298Z,3
2017-08-19T11:30:01.522Z,3
2017-08-19T11:31:04.367Z,2.9
2017-08-19T11:32:07.253Z,2.9
2017-08-19T11:33:09.763Z,2.9
2017-08-19T11:34:12.977Z,2.8
2017-08-19T11:35:16.180Z,2.9
2017-08-19T11:36:19.367Z,2.8
2017-08-19T11:37:21.899Z,2.9
2017-08-19T11:38:24.745Z,2.9
2017-08-19T11:39:27.287Z,2.8
2017-08-19T11:40:30.161Z,2.9
2017-08-19T11:41:33.369Z,2.8
2017-08-19T11:42:36.226Z,2.8
2017-08-19T11:43:39.065Z,2.8
2017-08-19T11:44:41.597Z,2.8
2017-08-19T11:45:44.133Z,2.8
2017-08-19T11:46:46.966Z,2.8
2017-08-19T11:47:49.479Z,2.7
2017-08-19T11:48:52.016Z,2.7
2017-08-19T11:49:54.527Z,2.8
2017-08-19T11:50:57.049Z,2.8
2017-08-19T11:51:59.587Z,2.8
2017-08-19T11:53:02.440Z,2.8
2017-08-19T11:54:05.302Z,2.7
2017-08-19T11:55:07.826Z,2.8
2017-08-19T11:56:10.325Z,2.8
2017-08-19T11:57:12.862Z,2.7
2017-08-19T11:58:15.389Z,2.7
2017-08-19T11:59:18.609Z,2.7
2017-08-19T12:00:21.469Z,2.7
2017-08-19T12:01:24.005Z,2.7
2017-08-19T12:02:26.865Z,2.6
2017-08-19T12:03:29.352Z,2.6
2017-08-19T12:04:31.877Z,2.6
2017-08-19T12:05:34.731Z,2.6
2017-08-19T12:06:37.268Z,2.6
2017-08-19T12:07:40.144Z,2.6
2017-08-19T12:08:42.981Z,2.6
2017-08-19T12:09:45.500Z,2.6
2017-08-19T12:10:48.037Z,2.6
2017-08-19T12:11:50.894Z,2.6
2017-08-19T12:12:53.754Z,2.6
2017-08-19T12:13:56.255Z,2.6
2017-08-19T12:14:58.777Z,2.7
2017-08-19T12:16:01.628Z,2.7
2017-08-19T12:17:04.155Z,2.7
2017-08-19T12:18:07.010Z,2.6
2017-08-19T12:19:09.532Z,2.7
2017-08-19T12:20:12.408Z,2.7
2017-08-19T12:21:14.941Z,2.7
2017-08-19T12:22:18.143Z,2.7
2017-08-19T12:23:20.674Z,2.7
2017-08-19T12:24:23.533Z,2.6
2017-08-19T12:25:26.754Z,2.7
2017-08-19T12:26:29.280Z,2.7
2017-08-19T12:27:31.802Z,2.7
2017-08-19T12:28:34.309Z,2.7
2017-08-19T12:29:36.863Z,2.7
2017-08-19T12:30:39.376Z,2.8
2017-08-19T12:31:42.245Z,2.7
2017-08-19T12:32:45.120Z,2.7
2017-08-19T12:33:47.973Z,2.7
2017-08-19T12:34:51.160Z,2.7
2017-08-19T12:35:54.038Z,2.7
2017-08-19T12:36:56.546Z,2.7
2017-08-19T12:37:59.430Z,2.7
2017-08-19T12:39:01.936Z,2.7
2017-08-19T12:40:04.805Z,2.7
2017-08-19T12:41:07.660Z,2.6
2017-08-19T12:42:10.185Z,2.7
2017-08-19T12:43:12.689Z,2.6
2017-08-19T12:44:15.214Z,2.6
2017-08-19T12:45:17.728Z,2.6
2017-08-19T12:46:20.249Z,2.6
2017-08-19T12:47:23.105Z,2.6
2017-08-19T12:48:25.627Z,2.6
2017-08-19T12:49:28.468Z,2.6
2017-08-19T12:50:31.006Z,2.6
2017-08-19T12:51:33.834Z,2.7
2017-08-19T12:52:36.353Z,2.7
2017-08-19T12:53:38.860Z,2.7
2017-08-19T12:54:41.375Z,2.7
2017-08-19T12:55:43.887Z,2.7
2017-08-19T12:56:46.421Z,2.8
2017-08-19T12:57:48.941Z,2.8
2017-08-19T12:58:51.811Z,2.8
2017-08-19T12:59:54.655Z,2.8
2017-08-19T13:00:57.237Z,2.8
2017-08-19T13:02:00.108Z,2.9
2017-08-19T13:03:02.977Z,2.9
2017-08-19T13:04:05.850Z,2.9
2017-08-19T13:05:08.362Z,2.9
2017-08-19T13:06:11.223Z,3
2017-08-19T13:07:14.085Z,3
2017-08-19T13:08:16.639Z,3
2017-08-19T13:09:19.181Z,3
2017-08-19T13:10:22.407Z,3
2017-08-19T13:11:25.262Z,3.1
2017-08-19T13:12:28.128Z,3
2017-08-19T13:13:30.672Z,3
2017-08-19T13:14:33.191Z,3
2017-08-19T13:15:36.046Z,3.1
2017-08-19T13:16:39.568Z,3.1
2017-08-19T13:17:42.449Z,3.3
2017-08-19T13:18:45.982Z,3
2017-08-19T13:19:48.830Z,3
2017-08-19T13:20:51.392Z,3
2017-08-19T13:21:54.589Z,3
2017-08-19T13:22:57.825Z,3
2017-08-19T13:24:01.369Z,3
2017-08-19T13:25:04.242Z,2.9
2017-08-19T13:26:06.769Z,2.9
2017-08-19T13:27:09.639Z,2.9
2017-08-19T13:28:12.164Z,2.9
2017-08-19T13:29:14.677Z,2.9
2017-08-19T13:30:17.548Z,2.9
2017-08-19T13:31:20.402Z,2.8
2017-08-19T13:32:22.914Z,2.8
2017-08-19T13:33:25.432Z,2.8
2017-08-19T13:34:28.994Z,2.9
2017-08-19T13:35:31.837Z,2.9
2017-08-19T13:36:34.352Z,2.8
2017-08-19T13:37:36.874Z,2.8
2017-08-19T13:38:40.262Z,2.8
2017-08-19T13:39:45.292Z,2.8
2017-08-19T13:40:48.176Z,2.8
2017-08-19T13:41:51.038Z,2.8
2017-08-19T13:42:55.721Z,2.8
2017-08-19T13:43:58.231Z,2.8
2017-08-19T13:45:01.081Z,2.8
2017-08-19T13:46:03.660Z,2.8
2017-08-19T13:47:06.866Z,2.7
2017-08-19T13:48:09.722Z,2.8
2017-08-19T13:49:12.582Z,2.8
2017-08-19T13:50:15.451Z,2.8
2017-08-19T13:51:18.295Z,2.9
2017-08-19T13:52:22.188Z,2.9
2017-08-19T13:53:25.022Z,2.8
2017-08-19T13:54:27.550Z,2.9
2017-08-19T13:55:30.085Z,2.9
2017-08-19T13:56:32.608Z,2.9
2017-08-19T13:57:35.470Z,2.8
2017-08-19T13:58:37.989Z,2.8
2017-08-19T13:59:40.506Z,2.8
2017-08-19T14:00:43.021Z,2.8
2017-08-19T14:01:45.573Z,2.7
2017-08-19T14:02:48.453Z,2.8
2017-08-19T14:03:51.293Z,2.8
2017-08-19T14:04:53.809Z,2.8
2017-08-19T14:05:56.381Z,2.8
2017-08-19T14:06:58.899Z,2.7
2017-08-19T14:08:01.782Z,2.7
2017-08-19T14:09:04.302Z,2.7
2017-08-19T14:10:07.199Z,2.7
2017-08-19T14:11:09.723Z,2.7
2017-08-19T14:12:12.584Z,2.8
2017-08-19T14:13:15.789Z,2.8
2017-08-19T14:14:18.675Z,2.8
2017-08-19T14:15:22.193Z,2.7
2017-08-19T14:16:25.050Z,2.7
2017-08-19T14:17:27.582Z,2.7
2017-08-19T14:18:30.092Z,2.7
2017-08-19T14:19:32.616Z,2.7
2017-08-19T14:20:35.476Z,2.7
2017-08-19T14:21:38.041Z,2.7
2017-08-19T14:22:40.911Z,2.8
2017-08-19T14:23:43.437Z,2.7
2017-08-19T14:24:45.940Z,2.7
2017-08-19T14:25:48.458Z,2.7
2017-08-19T14:26:51.011Z,2.7